createdAt,value
2023-05-04T00:02:18.819Z,66.28
2023-05-04T00:06:35.134Z,66.15
2023-05-04T00:10:51.566Z,66.08
2023-05-04T00:15:08.402Z,66.43
2023-05-04T00:19:24.770Z,66.60
2023-05-04T00:23:40.950Z,66.79
2023-05-04T00:27:57.357Z,66.24
2023-05-04T00:32:13.614Z,66.13
2023-05-04T00:36:29.874Z,65.72
2023-05-04T00:40:46.456Z,66.33
2023-05-04T00:45:02.792Z,66.30
2023-05-04T00:49:19.038Z,66.18
2023-05-04T00:53:36.426Z,66.49
2023-05-04T00:57:52.929Z,66.22
2023-05-04T01:02:09.525Z,66.21
2023-05-04T01:06:34.680Z,66.45
2023-05-04T01:10:56.852Z,66.62
2023-05-04T01:15:14.084Z,66.40
2023-05-04T01:19:30.434Z,66.54
2023-05-04T01:23:46.868Z,66.09
2023-05-04T01:28:13.917Z,66.25
2023-05-04T01:32:31.678Z,65.77
2023-05-04T01:36:48.394Z,65.94
2023-05-04T01:41:04.770Z,66.77
2023-05-04T01:45:21.772Z,66.11
2023-05-04T01:49:38.087Z,65.91
2023-05-04T01:53:54.420Z,66.06
2023-05-04T01:58:10.769Z,65.67
2023-05-04T02:02:27.133Z,66.02
2023-05-04T02:06:43.366Z,65.76
2023-05-04T02:10:59.637Z,65.82
2023-05-04T02:15:16.016Z,65.38
2023-05-04T02:19:32.228Z,65.62
2023-05-04T02:23:48.528Z,65.57
2023-05-04T02:28:04.813Z,65.49
2023-05-04T02:32:21.181Z,66.18
2023-05-04T02:36:37.438Z,65.91
2023-05-04T02:40:53.761Z,66.35
2023-05-04T02:45:10.444Z,66.24
2023-05-04T02:49:26.942Z,66.00
2023-05-04T02:53:43.243Z,65.90
2023-05-04T02:57:59.541Z,66.13
2023-05-04T03:02:15.791Z,66.69
2023-05-04T03:06:32.062Z,66.65
2023-05-04T03:10:48.308Z,66.57
2023-05-04T03:15:04.714Z,65.68
2023-05-04T03:19:22.313Z,66.03
2023-05-04T03:23:38.611Z,65.42
2023-05-04T03:27:54.889Z,65.84
2023-05-04T03:32:11.923Z,66.09
2023-05-04T03:36:28.384Z,65.82
2023-05-04T03:40:45.190Z,66.32
2023-05-04T03:45:03.841Z,66.65
2023-05-04T03:49:20.729Z,66.49
2023-05-04T03:53:37.102Z,67.17
2023-05-04T03:57:53.298Z,66.83
2023-05-04T04:02:09.637Z,67.32
2023-05-04T04:06:26.116Z,67.70
2023-05-04T04:10:42.568Z,67.66
2023-05-04T04:14:58.769Z,67.09
2023-05-04T04:19:15.082Z,67.41
2023-05-04T04:23:31.333Z,67.27
2023-05-04T04:27:47.590Z,66.06
2023-05-04T04:32:04.502Z,65.98
2023-05-04T04:36:21.029Z,65.74
2023-05-04T04:40:37.228Z,66.20
2023-05-04T04:44:53.733Z,66.10
2023-05-04T04:49:10.318Z,66.32
2023-05-04T04:53:26.774Z,66.14
2023-05-04T04:57:42.990Z,64.96
2023-05-04T05:01:59.531Z,64.37
2023-05-04T05:06:16.099Z,65.62
2023-05-04T05:10:32.493Z,65.43
2023-05-04T05:14:51.048Z,65.20
2023-05-04T05:19:07.953Z,63.93
2023-05-04T05:23:24.322Z,62.22
2023-05-04T05:27:40.570Z,62.45
2023-05-04T05:31:56.920Z,63.83
2023-05-04T05:36:14.721Z,62.76
2023-05-04T05:40:31.498Z,63.03
2023-05-04T05:44:47.964Z,64.06
2023-05-04T05:49:07.482Z,63.27
2023-05-04T05:53:24.024Z,63.82
2023-05-04T05:57:40.405Z,64.70
2023-05-04T06:01:56.639Z,64.64
2023-05-04T06:06:13.034Z,62.20
2023-05-04T06:10:29.503Z,61.63
2023-05-04T06:14:46.140Z,61.17
2023-05-04T06:19:02.307Z,58.47
2023-05-04T06:23:18.464Z,57.06
2023-05-04T06:27:34.838Z,57.59
2023-05-04T06:31:51.625Z,58.00
2023-05-04T06:36:08.228Z,54.48
2023-05-04T06:40:25.043Z,53.87
2023-05-04T06:44:41.677Z,54.64
2023-05-04T06:48:58.663Z,53.64
2023-05-04T06:53:15.358Z,54.82
2023-05-04T06:57:31.880Z,53.94
2023-05-04T07:01:48.500Z,53.44
2023-05-04T07:06:04.948Z,55.67
2023-05-04T07:10:21.142Z,53.11
2023-05-04T07:14:37.456Z,52.25
2023-05-04T07:18:53.750Z,51.78
2023-05-04T07:23:09.978Z,51.75
2023-05-04T07:27:26.226Z,51.64
2023-05-04T07:31:42.449Z,52.76
2023-05-04T07:35:59.661Z,51.37
2023-05-04T07:40:16.625Z,50.72
2023-05-04T07:44:33.318Z,51.02
2023-05-04T07:48:49.689Z,50.36
2023-05-04T07:53:05.899Z,50.84
2023-05-04T07:57:22.508Z,50.19
2023-05-04T08:01:38.795Z,48.95
2023-05-04T08:05:55.017Z,46.78
2023-05-04T08:10:11.472Z,49.41
2023-05-04T08:14:27.655Z,47.38
2023-05-04T08:18:43.991Z,47.17
2023-05-04T08:23:02.989Z,47.68
2023-05-04T08:27:19.339Z,45.93
2023-05-04T08:31:37.810Z,45.97
2023-05-04T08:35:54.086Z,47.16
2023-05-04T08:40:12.742Z,49.01
2023-05-04T08:44:29.481Z,47.80
2023-05-04T08:48:46.614Z,48.20
2023-05-04T08:53:05.959Z,50.23
2023-05-04T08:57:23.873Z,50.64
2023-05-04T09:01:40.522Z,48.50
2023-05-04T09:05:57.653Z,46.36
2023-05-04T09:10:13.910Z,46.52
2023-05-04T09:14:34.849Z,47.91
2023-05-04T09:18:51.529Z,46.59
2023-05-04T09:23:09.398Z,47.30
2023-05-04T09:27:26.052Z,49.50
2023-05-04T09:31:47.431Z,48.21
2023-05-04T09:36:18.380Z,48.35
2023-05-04T09:40:42.558Z,46.36
2023-05-04T09:45:08.390Z,44.90
2023-05-04T09:49:50.816Z,42.87
2023-05-04T09:54:07.429Z,43.15
2023-05-04T09:58:25.208Z,40.30
2023-05-04T10:02:42.621Z,41.04
2023-05-04T10:06:59.464Z,39.47
2023-05-04T10:11:18.865Z,37.49
2023-05-04T10:15:36.583Z,42.28
2023-05-04T10:20:07.929Z,41.92
2023-05-04T10:24:33.572Z,39.75
2023-05-04T10:29:19.710Z,42.91
2023-05-04T10:33:44.172Z,43.52
2023-05-04T10:38:00.992Z,40.26
2023-05-04T10:42:17.079Z,39.12
2023-05-04T10:46:33.350Z,41.14
2023-05-04T10:50:50.761Z,42.32
2023-05-04T10:55:09.273Z,39.98
2023-05-04T10:59:25.577Z,40.44
2023-05-04T11:03:42.495Z,39.40
2023-05-04T11:12:16.729Z,40.54
2023-05-04T11:16:32.968Z,39.93
2023-05-04T11:20:49.347Z,39.58
2023-05-04T11:25:06.862Z,40.01
2023-05-04T11:29:23.176Z,40.51
2023-05-04T11:33:39.404Z,43.30
2023-05-04T11:37:56.594Z,44.30
2023-05-04T11:42:12.815Z,44.17
2023-05-04T11:46:29.331Z,44.59
2023-05-04T11:50:46.061Z,44.85
2023-05-04T11:55:03.584Z,47.20
2023-05-04T11:59:19.914Z,44.32
2023-05-04T12:03:53.320Z,45.37
2023-05-04T12:08:12.634Z,45.89
2023-05-04T12:12:36.531Z,46.45
2023-05-04T12:16:57.997Z,44.47
2023-05-04T12:21:19.934Z,45.33
2023-05-04T12:25:44.144Z,43.57
2023-05-04T12:30:08.311Z,44.03
2023-05-04T12:34:24.559Z,45.33
2023-05-04T12:38:40.842Z,44.06
2023-05-04T12:42:57.029Z,43.86
2023-05-04T12:47:14.375Z,44.41
2023-05-04T12:51:30.703Z,46.03
2023-05-04T12:55:46.941Z,43.68
2023-05-04T13:00:03.912Z,42.91
2023-05-04T13:04:20.321Z,44.58
2023-05-04T13:08:36.605Z,39.44
2023-05-04T13:12:52.968Z,40.86
2023-05-04T13:17:09.321Z,40.23
2023-05-04T13:21:25.661Z,36.61
2023-05-04T13:25:42.291Z,39.72
2023-05-04T13:30:01.262Z,36.39
2023-05-04T13:34:17.601Z,35.18
2023-05-04T13:38:33.829Z,35.76
2023-05-04T13:42:50.050Z,37.10
2023-05-04T13:47:06.360Z,36.92
2023-05-04T13:51:22.615Z,36.61
2023-05-04T13:55:38.842Z,37.09
2023-05-04T14:00:07.206Z,38.31
2023-05-04T14:04:24.547Z,37.43
2023-05-04T14:08:40.783Z,39.03
2023-05-04T14:12:57.154Z,38.95
2023-05-04T14:17:13.622Z,36.45
2023-05-04T14:21:29.893Z,38.39
2023-05-04T14:25:53.702Z,39.22
2023-05-04T14:30:10.653Z,38.25
2023-05-04T14:34:29.553Z,39.59
2023-05-04T14:38:46.023Z,39.02
2023-05-04T14:43:02.504Z,38.88
2023-05-04T14:47:19.750Z,37.72
2023-05-04T14:51:37.027Z,38.64
2023-05-04T14:55:53.334Z,37.62
2023-05-04T15:00:11.638Z,39.10
2023-05-04T15:04:28.043Z,38.88
2023-05-04T15:08:44.326Z,39.28
2023-05-04T15:13:01.890Z,37.20
2023-05-04T15:17:20.100Z,38.49
2023-05-04T15:21:36.658Z,38.52
2023-05-04T15:25:53.015Z,39.70
2023-05-04T15:30:10.246Z,38.65
2023-05-04T15:34:26.637Z,39.80
2023-05-04T15:38:43.787Z,38.64
2023-05-04T15:43:00.147Z,39.14
2023-05-04T15:47:16.359Z,39.75
2023-05-04T15:51:32.728Z,39.28
2023-05-04T15:55:50.876Z,40.49
2023-05-04T16:00:09.159Z,40.62
2023-05-04T16:04:25.398Z,40.20
2023-05-04T16:08:41.723Z,41.46
2023-05-04T16:13:04.251Z,40.28
2023-05-04T16:17:21.021Z,40.48
2023-05-04T16:21:37.259Z,40.89
2023-05-04T16:25:53.471Z,41.70
2023-05-04T16:30:10.218Z,42.08
2023-05-04T16:34:26.755Z,42.62
2023-05-04T16:38:43.190Z,42.97
2023-05-04T16:42:59.732Z,43.22
2023-05-04T16:47:16.431Z,43.93
2023-05-04T16:51:32.609Z,43.65
2023-05-04T16:55:51.110Z,44.42
2023-05-04T17:00:08.188Z,44.26
2023-05-04T17:04:25.480Z,44.21
2023-05-04T17:08:41.741Z,44.51
2023-05-04T17:12:59.220Z,44.30
2023-05-04T17:17:16.608Z,44.71
2023-05-04T17:21:33.161Z,44.47
2023-05-04T17:25:50.396Z,44.64
2023-05-04T17:30:07.564Z,44.59
2023-05-04T17:34:23.925Z,45.50
2023-05-04T17:38:41.500Z,46.25
2023-05-04T17:42:57.885Z,46.37
2023-05-04T17:47:14.162Z,46.28
2023-05-04T17:51:31.048Z,46.14
2023-05-04T17:55:47.255Z,49.42
2023-05-04T18:00:05.406Z,46.89
2023-05-04T18:04:21.829Z,47.02
2023-05-04T18:08:37.988Z,46.93
2023-05-04T18:12:56.472Z,47.92
2023-05-04T18:17:12.851Z,48.51
2023-05-04T18:21:29.097Z,48.55
2023-05-04T18:25:45.360Z,48.43
2023-05-04T18:30:02.452Z,48.66
2023-05-04T18:34:18.804Z,48.42
2023-05-04T18:38:36.378Z,48.50
2023-05-04T18:42:52.543Z,49.01
2023-05-04T18:47:09.234Z,49.02
2023-05-04T18:51:28.044Z,49.60
2023-05-04T18:55:44.305Z,49.87
2023-05-04T19:00:00.669Z,50.45
2023-05-04T19:04:16.877Z,50.48
2023-05-04T19:08:33.409Z,50.36
2023-05-04T19:12:50.692Z,51.30
2023-05-04T19:17:07.052Z,51.87
2023-05-04T19:21:23.332Z,52.18
2023-05-04T19:25:39.588Z,52.47
2023-05-04T19:29:56.292Z,52.72
2023-05-04T19:34:12.655Z,53.24
2023-05-04T19:38:28.954Z,54.66
2023-05-04T19:42:46.327Z,53.67
2023-05-04T19:47:02.648Z,53.53
2023-05-04T19:51:18.898Z,53.95
2023-05-04T19:55:36.411Z,53.94
2023-05-04T19:59:52.667Z,54.59
2023-05-04T20:04:08.921Z,54.39
2023-05-04T20:08:25.160Z,54.12
2023-05-04T20:12:41.525Z,55.09
2023-05-04T20:16:58.253Z,55.60
2023-05-04T20:21:14.802Z,55.11
2023-05-04T20:25:31.231Z,54.81
2023-05-04T20:29:47.598Z,55.98
2023-05-04T20:34:03.799Z,56.23
2023-05-04T20:38:20.086Z,55.65
2023-05-04T20:42:36.421Z,55.42
2023-05-04T20:46:52.606Z,55.93
2023-05-04T20:51:14.788Z,55.69
2023-05-04T20:55:31.848Z,56.43
2023-05-04T20:59:48.072Z,58.40
2023-05-04T21:04:04.462Z,57.77
2023-05-04T21:08:20.728Z,57.56
2023-05-04T21:12:37.047Z,57.34
2023-05-04T21:16:53.315Z,57.76
2023-05-04T21:21:09.630Z,58.53
2023-05-04T21:25:26.377Z,57.91
2023-05-04T21:29:42.541Z,58.03
2023-05-04T21:33:58.849Z,58.86
2023-05-04T21:38:15.203Z,60.32
2023-05-04T21:42:31.496Z,61.28
2023-05-04T21:46:47.823Z,61.42
2023-05-04T21:51:04.062Z,60.97
2023-05-04T21:55:20.541Z,61.11
2023-05-04T21:59:36.910Z,61.72
2023-05-04T22:03:53.332Z,61.07
2023-05-04T22:08:09.490Z,61.33
2023-05-04T22:12:26.244Z,60.66
2023-05-04T22:16:42.576Z,60.55
2023-05-04T22:20:58.832Z,60.67
2023-05-04T22:25:15.166Z,60.79
2023-05-04T22:29:34.062Z,61.31
2023-05-04T22:33:50.308Z,61.41
2023-05-04T22:38:07.004Z,60.43
2023-05-04T22:42:23.380Z,60.38
2023-05-04T22:46:39.877Z,61.14
2023-05-04T22:50:56.468Z,60.89
2023-05-04T22:55:12.684Z,60.17
2023-05-04T22:59:28.913Z,59.78
2023-05-04T23:03:45.557Z,59.28
2023-05-04T23:08:01.845Z,56.09
2023-05-04T23:12:18.255Z,57.60
2023-05-04T23:16:34.551Z,57.38
2023-05-04T23:20:51.020Z,57.13
2023-05-04T23:25:08.422Z,55.10
2023-05-04T23:29:24.764Z,54.91
2023-05-04T23:33:41.872Z,54.38
2023-05-04T23:37:58.374Z,53.97
2023-05-04T23:42:14.958Z,54.59
2023-05-04T23:46:31.346Z,55.17
2023-05-04T23:50:54.949Z,54.94
2023-05-04T23:55:11.323Z,54.80
2023-05-04T23:59:27.809Z,54.72
